createdAt,value
2023-01-13T00:00:09.199Z,27.52
2023-01-13T00:02:36.203Z,27.60
2023-01-13T00:05:03.643Z,20.15
2023-01-13T00:07:30.415Z,15.88
2023-01-13T00:09:57.083Z,24.20
2023-01-13T00:12:23.706Z,14.63
2023-01-13T00:14:50.368Z,28.25
2023-01-13T00:17:17.056Z,25.33
2023-01-13T00:19:44.643Z,24.95
2023-01-13T00:22:11.300Z,21.08
2023-01-13T00:24:38.023Z,20.42
2023-01-13T00:27:04.737Z,21.63
2023-01-13T00:29:31.451Z,23.88
2023-01-13T00:31:58.213Z,17.20
2023-01-13T00:34:24.833Z,25.17
2023-01-13T00:36:51.445Z,28.60
2023-01-13T00:39:18.055Z,23.15
2023-01-13T00:42:03.334Z,21.55
2023-01-13T00:44:29.970Z,21.08
2023-01-13T00:46:56.627Z,26.20
2023-01-13T00:49:23.291Z,19.77
2023-01-13T00:51:49.932Z,18.08
2023-01-13T00:54:16.636Z,27.10
2023-01-13T00:56:43.263Z,20.50
2023-01-13T00:59:14.046Z,17.52
2023-01-13T01:01:41.618Z,14.60
2023-01-13T01:04:08.598Z,24.23
2023-01-13T01:06:35.309Z,16.38
2023-01-13T01:09:02.242Z,17.02
2023-01-13T01:11:31.193Z,38.65
2023-01-13T01:14:00.565Z,21.27
2023-01-13T01:16:29.262Z,22.52
2023-01-13T01:18:56.313Z,16.60
2023-01-13T01:21:25.529Z,22.58
2023-01-13T01:23:52.205Z,22.52
2023-01-13T01:26:21.394Z,24.08
2023-01-13T01:28:48.659Z,25.30
2023-01-13T01:31:27.424Z,19.23
2023-01-13T01:33:54.878Z,18.48
2023-01-13T01:36:23.629Z,23.83
2023-01-13T01:38:50.596Z,19.65
2023-01-13T01:41:21.557Z,20.77
2023-01-13T01:44:00.298Z,28.05
2023-01-13T01:46:40.890Z,23.00
2023-01-13T01:49:17.082Z,29.08
2023-01-13T01:51:58.263Z,30.15
2023-01-13T01:54:32.002Z,31.35
2023-01-13T01:56:58.964Z,25.60
2023-01-13T01:59:27.458Z,19.55
2023-01-13T02:01:54.401Z,29.42
2023-01-13T02:04:26.454Z,24.48
2023-01-13T02:06:53.979Z,16.80
2023-01-13T02:09:20.604Z,26.15
2023-01-13T02:12:05.945Z,27.42
2023-01-13T02:14:34.405Z,18.88
2023-01-13T02:17:30.083Z,33.25
2023-01-13T02:20:24.225Z,22.13
2023-01-13T02:23:30.140Z,22.13
2023-01-13T02:26:32.425Z,14.15
2023-01-13T02:30:06.632Z,22.98
2023-01-13T02:33:03.660Z,26.65
2023-01-13T02:35:41.981Z,21.55
2023-01-13T02:38:12.570Z,23.52
2023-01-13T02:40:56.818Z,22.15
2023-01-13T02:43:44.668Z,21.80
2023-01-13T02:46:22.205Z,25.73
2023-01-13T02:48:52.755Z,20.60
2023-01-13T02:51:24.071Z,24.25
2023-01-13T02:54:11.384Z,19.95
2023-01-13T02:56:42.065Z,20.77
2023-01-13T02:59:09.871Z,25.65
2023-01-13T03:01:37.122Z,17.63
2023-01-13T03:04:32.116Z,18.00
2023-01-13T03:07:12.804Z,19.98
2023-01-13T03:09:51.586Z,27.40
2023-01-13T03:12:31.483Z,23.63
2023-01-13T03:15:10.975Z,24.52
2023-01-13T03:17:42.651Z,23.80
2023-01-13T03:20:37.422Z,15.00
2023-01-13T03:23:18.711Z,24.63
2023-01-13T03:26:01.786Z,25.15
2023-01-13T03:28:33.493Z,14.32
2023-01-13T03:31:06.720Z,18.17
2023-01-13T03:33:45.702Z,23.30
2023-01-13T03:36:16.689Z,19.88
2023-01-13T03:38:49.592Z,20.98
2023-01-13T03:41:27.487Z,18.85
2023-01-13T03:44:24.439Z,20.58
2023-01-13T03:47:03.911Z,22.50
2023-01-13T03:49:38.401Z,16.10
2023-01-13T03:52:08.498Z,23.00
2023-01-13T03:54:45.060Z,13.55
2023-01-13T03:57:15.476Z,16.45
2023-01-13T03:59:45.820Z,18.77
2023-01-13T04:03:00.803Z,24.08
2023-01-13T04:05:28.464Z,20.02
2023-01-13T04:08:14.023Z,24.13
2023-01-13T04:10:55.042Z,9.77
2023-01-13T04:13:24.477Z,15.35
2023-01-13T04:15:51.412Z,14.43
2023-01-13T04:18:22.344Z,9.32
2023-01-13T04:20:51.052Z,14.13
2023-01-13T04:23:18.856Z,11.48
2023-01-13T04:25:46.236Z,14.10
2023-01-13T04:28:14.224Z,8.43
2023-01-13T04:30:42.442Z,11.02
2023-01-13T04:33:09.205Z,7.32
2023-01-13T04:35:36.792Z,12.50
2023-01-13T04:38:09.204Z,11.95
2023-01-13T04:40:36.339Z,9.15
2023-01-13T04:43:03.821Z,9.18
2023-01-13T04:45:30.972Z,18.10
2023-01-13T04:47:57.944Z,7.28
2023-01-13T04:50:25.297Z,9.02
2023-01-13T04:52:53.436Z,6.65
2023-01-13T04:55:21.835Z,10.77
2023-01-13T04:57:48.721Z,10.13
2023-01-13T05:00:18.166Z,10.45
2023-01-13T05:02:44.865Z,12.10
2023-01-13T05:05:11.520Z,8.70
2023-01-13T05:07:38.399Z,14.82
2023-01-13T05:10:05.574Z,17.65
2023-01-13T05:12:51.065Z,7.88
2023-01-13T05:15:36.650Z,10.18
2023-01-13T05:18:03.820Z,13.82
2023-01-13T05:20:30.455Z,8.80
2023-01-13T05:23:15.468Z,13.82
2023-01-13T05:25:44.538Z,15.77
2023-01-13T05:28:11.639Z,8.65
2023-01-13T05:30:44.065Z,10.35
2023-01-13T05:33:12.370Z,12.18
2023-01-13T05:35:43.171Z,16.60
2023-01-13T05:38:10.263Z,12.98
2023-01-13T05:40:59.483Z,9.93
2023-01-13T05:43:27.094Z,18.98
2023-01-13T05:46:01.231Z,11.95
2023-01-13T05:48:33.521Z,9.23
2023-01-13T05:51:02.216Z,15.15
2023-01-13T05:53:29.262Z,10.93
2023-01-13T05:55:56.526Z,14.25
2023-01-13T05:58:25.430Z,14.75
2023-01-13T06:00:52.874Z,14.32
2023-01-13T06:03:20.168Z,14.65
2023-01-13T06:05:47.722Z,11.55
2023-01-13T06:08:14.671Z,17.58
2023-01-13T06:10:41.387Z,8.10
2023-01-13T06:13:07.978Z,12.38
2023-01-13T06:15:34.614Z,15.93
2023-01-13T06:18:04.906Z,17.50
2023-01-13T06:20:32.110Z,13.52
2023-01-13T06:22:59.414Z,9.27
2023-01-13T06:25:33.396Z,13.82
2023-01-13T06:28:00.561Z,20.35
2023-01-13T06:30:32.702Z,13.00
2023-01-13T06:33:02.484Z,14.40
2023-01-13T06:35:34.148Z,17.40
2023-01-13T06:38:03.541Z,15.68
2023-01-13T06:40:30.444Z,12.02
2023-01-13T06:43:17.294Z,18.20
2023-01-13T06:45:55.098Z,10.82
2023-01-13T06:48:32.955Z,15.68
2023-01-13T06:50:59.895Z,11.75
2023-01-13T06:53:26.578Z,18.00
2023-01-13T06:55:53.164Z,12.52
2023-01-13T06:58:19.835Z,14.60
2023-01-13T07:00:51.118Z,14.73
2023-01-13T07:03:19.639Z,16.15
2023-01-13T07:05:53.031Z,14.48
2023-01-13T07:08:19.876Z,13.95
2023-01-13T07:10:46.645Z,25.33
2023-01-13T07:13:31.997Z,22.63
2023-01-13T07:16:01.254Z,11.45
2023-01-13T07:18:31.484Z,26.83
2023-01-13T07:21:00.690Z,11.65
2023-01-13T07:23:28.798Z,14.82
2023-01-13T07:25:59.905Z,18.77
2023-01-13T07:28:28.510Z,14.55
2023-01-13T07:30:55.813Z,17.65
2023-01-13T07:33:22.877Z,13.98
2023-01-13T07:36:00.004Z,13.50
2023-01-13T07:38:27.507Z,12.15
2023-01-13T07:40:54.837Z,18.25
2023-01-13T07:43:34.046Z,16.13
2023-01-13T07:46:06.055Z,11.07
2023-01-13T07:48:34.279Z,24.65
2023-01-13T07:51:06.639Z,12.15
2023-01-13T07:53:33.909Z,13.10
2023-01-13T07:56:01.288Z,17.27
2023-01-13T07:58:28.866Z,22.40
2023-01-13T08:00:56.443Z,16.23
2023-01-13T08:03:23.440Z,19.45
2023-01-13T08:05:50.088Z,20.05
2023-01-13T08:08:17.042Z,16.23
2023-01-13T08:10:43.686Z,11.20
2023-01-13T08:13:22.629Z,16.55
2023-01-13T08:15:51.588Z,17.02
2023-01-13T08:18:21.977Z,17.23
2023-01-13T08:20:49.711Z,21.70
2023-01-13T08:23:16.555Z,18.70
2023-01-13T08:25:43.242Z,18.52
2023-01-13T08:28:10.070Z,15.15
2023-01-13T08:30:36.885Z,19.33
2023-01-13T08:33:07.708Z,20.80
2023-01-13T08:35:39.847Z,14.75
2023-01-13T08:38:08.016Z,15.27
2023-01-13T08:40:35.165Z,17.60
2023-01-13T08:43:03.138Z,15.40
2023-01-13T08:45:29.862Z,19.48
2023-01-13T08:47:56.550Z,16.15
2023-01-13T08:50:23.412Z,16.88
2023-01-13T08:52:50.094Z,21.55
2023-01-13T08:55:16.754Z,16.20
2023-01-13T08:57:43.524Z,14.45
2023-01-13T09:00:11.142Z,13.32
2023-01-13T09:02:38.617Z,18.60
2023-01-13T09:05:07.267Z,25.02
2023-01-13T09:07:35.669Z,20.73
2023-01-13T09:10:05.302Z,19.42
2023-01-13T09:12:50.494Z,21.38
2023-01-13T09:15:20.200Z,18.98
2023-01-13T09:17:47.833Z,18.83
2023-01-13T09:20:14.808Z,13.88
2023-01-13T09:22:41.723Z,14.30
2023-01-13T09:25:08.803Z,26.30
2023-01-13T09:27:35.554Z,19.58
2023-01-13T09:30:02.243Z,18.25
2023-01-13T09:32:28.836Z,14.05
2023-01-13T09:35:01.323Z,16.02
2023-01-13T09:37:37.091Z,15.45
2023-01-13T09:40:17.170Z,18.30
2023-01-13T09:43:05.881Z,17.70
2023-01-13T09:45:51.416Z,17.83
2023-01-13T09:48:29.432Z,8.63
2023-01-13T09:51:16.924Z,14.65
2023-01-13T09:53:50.971Z,12.20
2023-01-13T09:56:17.588Z,21.63
2023-01-13T09:58:46.152Z,13.57
2023-01-13T10:01:36.085Z,17.02
2023-01-13T10:04:11.976Z,17.38
2023-01-13T10:06:43.798Z,17.15
2023-01-13T10:09:18.106Z,16.83
2023-01-13T10:12:05.716Z,13.85
2023-01-13T10:14:42.778Z,18.17
2023-01-13T10:17:31.707Z,13.98
2023-01-13T10:20:07.273Z,15.15
2023-01-13T10:22:57.996Z,14.77
2023-01-13T10:26:10.771Z,20.73
2023-01-13T10:28:37.463Z,26.38
2023-01-13T10:31:12.260Z,14.55
2023-01-13T10:33:39.035Z,12.55
2023-01-13T10:36:17.901Z,15.50
2023-01-13T10:38:49.963Z,13.95
2023-01-13T10:41:16.884Z,13.88
2023-01-13T10:44:05.600Z,12.25
2023-01-13T10:46:49.522Z,16.58
2023-01-13T10:49:31.407Z,15.52
2023-01-13T10:51:59.404Z,14.30
2023-01-13T10:54:27.116Z,36.40
2023-01-13T10:57:14.481Z,15.20
2023-01-13T10:59:41.190Z,15.38
2023-01-13T11:02:27.636Z,21.30
2023-01-13T11:04:54.504Z,18.17
2023-01-13T11:07:30.379Z,17.38
2023-01-13T11:10:09.272Z,11.13
2023-01-13T11:12:50.732Z,17.00
2023-01-13T11:15:22.718Z,14.43
2023-01-13T11:18:27.391Z,10.32
2023-01-13T11:20:57.131Z,23.10
2023-01-13T11:23:28.706Z,18.75
2023-01-13T11:26:02.528Z,12.57
2023-01-13T11:28:55.487Z,17.25
2023-01-13T11:31:33.493Z,9.77
2023-01-13T11:34:07.983Z,10.48
2023-01-13T11:39:25.859Z,16.00
2023-01-13T11:42:21.553Z,11.05
2023-01-13T11:45:06.506Z,10.32
2023-01-13T11:47:35.589Z,11.00
2023-01-13T11:50:03.697Z,9.57
2023-01-13T11:52:49.158Z,12.50
2023-01-13T11:55:55.671Z,13.63
2023-01-13T11:58:54.045Z,15.25
2023-01-13T12:01:36.401Z,10.23
2023-01-13T12:04:26.313Z,11.60
2023-01-13T12:07:20.231Z,7.05
2023-01-13T12:12:32.928Z,12.05
2023-01-13T12:15:08.002Z,12.55
2023-01-13T12:17:47.020Z,14.27
2023-01-13T12:20:38.058Z,15.60
2023-01-13T12:23:13.170Z,9.50
2023-01-13T12:25:54.499Z,14.10
2023-01-13T12:28:28.316Z,9.27
2023-01-13T12:31:03.614Z,8.38
2023-01-13T12:34:07.307Z,10.65
2023-01-13T12:36:52.684Z,12.48
2023-01-13T12:39:26.844Z,8.57
2023-01-13T12:42:13.732Z,13.55
2023-01-13T12:45:11.286Z,11.45
2023-01-13T12:47:43.611Z,7.63
2023-01-13T12:50:22.118Z,13.63
2023-01-13T12:52:52.333Z,19.23
2023-01-13T12:55:29.110Z,12.43
2023-01-13T12:57:58.888Z,5.97
2023-01-13T13:00:52.305Z,7.47
2023-01-13T13:03:31.480Z,10.07
2023-01-13T13:06:04.478Z,10.15
2023-01-13T13:09:13.191Z,9.20
2023-01-13T13:12:03.918Z,13.50
2023-01-13T13:14:39.806Z,12.68
2023-01-13T13:17:28.456Z,13.88
2023-01-13T13:19:56.507Z,6.53
2023-01-13T13:22:28.894Z,5.85
2023-01-13T13:24:55.774Z,9.57
2023-01-13T13:27:25.385Z,13.75
2023-01-13T13:30:09.373Z,12.18
2023-01-13T13:33:18.739Z,13.98
2023-01-13T13:36:02.607Z,7.68
2023-01-13T13:39:08.378Z,14.20
2023-01-13T13:41:55.452Z,6.38
2023-01-13T13:45:04.174Z,9.30
2023-01-13T13:47:38.356Z,14.55
2023-01-13T13:50:15.120Z,10.07
2023-01-13T13:52:54.352Z,12.20
2023-01-13T13:55:24.263Z,11.25
2023-01-13T13:57:53.364Z,14.20
2023-01-13T14:00:34.853Z,19.55
2023-01-13T14:03:07.972Z,9.63
2023-01-13T14:05:38.647Z,9.25
2023-01-13T14:08:17.797Z,16.92
2023-01-13T14:10:46.497Z,7.05
2023-01-13T14:13:25.838Z,9.70
2023-01-13T14:16:03.216Z,18.35
2023-01-13T14:18:41.366Z,3.90
2023-01-13T14:21:22.140Z,12.13
2023-01-13T14:24:00.323Z,13.43
2023-01-13T14:26:30.621Z,11.40
2023-01-13T14:29:00.638Z,11.05
2023-01-13T14:31:28.028Z,9.82
2023-01-13T14:33:57.503Z,7.28
2023-01-13T14:36:37.971Z,13.48
2023-01-13T14:39:05.660Z,10.80
2023-01-13T14:41:36.672Z,16.88
2023-01-13T14:44:35.888Z,11.38
2023-01-13T14:47:16.870Z,11.45
2023-01-13T14:50:02.353Z,9.82
2023-01-13T14:52:49.059Z,8.73
2023-01-13T14:55:21.382Z,18.75
2023-01-13T14:57:48.267Z,7.82
2023-01-13T15:00:14.946Z,7.70
2023-01-13T15:02:44.710Z,9.02
2023-01-13T15:05:26.170Z,13.50
2023-01-13T15:07:55.580Z,4.63
2023-01-13T15:10:26.013Z,9.65
2023-01-13T15:12:55.802Z,9.73
2023-01-13T15:15:40.360Z,11.90
2023-01-13T15:18:15.351Z,10.27
2023-01-13T15:20:42.579Z,9.25
2023-01-13T15:23:09.254Z,9.55
2023-01-13T15:25:38.203Z,14.32
2023-01-13T15:28:06.069Z,6.25
2023-01-13T15:30:32.894Z,14.07
2023-01-13T15:32:59.879Z,8.63
2023-01-13T15:35:29.013Z,13.23
2023-01-13T15:37:56.672Z,12.20
2023-01-13T15:40:26.634Z,12.70
2023-01-13T15:43:12.214Z,12.02
2023-01-13T15:45:57.299Z,10.95
2023-01-13T15:48:26.579Z,8.57
2023-01-13T15:50:56.387Z,13.80
2023-01-13T15:53:23.087Z,15.45
2023-01-13T15:55:53.985Z,13.93
2023-01-13T15:58:24.037Z,14.65
2023-01-13T16:00:50.646Z,16.70
2023-01-13T16:03:17.711Z,12.85
2023-01-13T16:05:45.225Z,15.93
2023-01-13T16:08:15.541Z,9.80
2023-01-13T16:10:43.152Z,13.98
2023-01-13T16:13:10.018Z,10.27
2023-01-13T16:15:36.800Z,8.75
2023-01-13T16:18:04.824Z,8.82
2023-01-13T16:20:31.498Z,16.00
2023-01-13T16:22:58.143Z,9.20
2023-01-13T16:25:27.029Z,11.10
2023-01-13T16:27:53.910Z,13.15
2023-01-13T16:30:37.222Z,17.73
2023-01-13T16:33:04.309Z,12.43
2023-01-13T16:35:35.604Z,11.57
2023-01-13T16:38:19.274Z,9.40
2023-01-13T16:40:46.840Z,15.32
2023-01-13T16:43:13.745Z,16.55
2023-01-13T16:45:41.347Z,15.88
2023-01-13T16:48:19.333Z,13.60
2023-01-13T16:50:46.369Z,8.90
2023-01-13T16:53:13.018Z,8.73
2023-01-13T16:55:41.130Z,18.15
2023-01-13T16:58:16.303Z,10.82
2023-01-13T17:00:43.215Z,14.35
2023-01-13T17:03:10.484Z,8.07
2023-01-13T17:05:43.268Z,11.48
2023-01-13T17:08:19.009Z,10.25
2023-01-13T17:10:46.857Z,9.80
2023-01-13T17:13:17.028Z,5.05
2023-01-13T17:15:45.259Z,2.42
2023-01-13T17:18:13.367Z,4.18
2023-01-13T17:20:40.363Z,7.72
2023-01-13T17:23:07.021Z,4.97
2023-01-13T17:25:33.666Z,2.17
2023-01-13T17:28:00.274Z,5.93
2023-01-13T17:30:26.879Z,3.95
2023-01-13T17:32:53.500Z,6.68
2023-01-13T17:35:24.547Z,5.22
2023-01-13T17:37:52.444Z,15.75
2023-01-13T17:40:19.243Z,3.75
2023-01-13T17:42:45.916Z,5.45
2023-01-13T17:45:12.551Z,3.13
2023-01-13T17:47:39.171Z,1.55
2023-01-13T17:50:06.327Z,3.42
2023-01-13T17:52:34.233Z,6.40
2023-01-13T17:55:00.853Z,5.45
2023-01-13T17:57:27.596Z,3.55
2023-01-13T17:59:54.166Z,10.10
2023-01-13T18:02:20.879Z,6.57
2023-01-13T18:04:47.506Z,11.35
2023-01-13T18:07:14.227Z,7.03
2023-01-13T18:09:40.795Z,6.07
2023-01-13T18:12:07.486Z,9.63
2023-01-13T18:14:34.861Z,9.60
2023-01-13T18:17:01.539Z,13.43
2023-01-13T18:19:46.856Z,11.82
2023-01-13T18:22:32.814Z,18.75
2023-01-13T18:25:18.410Z,9.18
2023-01-13T18:27:45.255Z,10.73
2023-01-13T18:30:12.730Z,12.80
2023-01-13T18:32:42.073Z,3.42
2023-01-13T18:35:10.372Z,8.63
2023-01-13T18:37:42.254Z,9.88
2023-01-13T18:40:11.626Z,7.07
2023-01-13T18:42:54.856Z,5.05
2023-01-13T18:45:27.945Z,8.98
2023-01-13T18:47:56.321Z,3.78
2023-01-13T18:50:24.130Z,4.78
2023-01-13T18:52:51.544Z,3.47
2023-01-13T18:55:18.293Z,6.75
2023-01-13T18:57:45.108Z,9.88
2023-01-13T19:00:14.530Z,5.97
2023-01-13T19:02:41.291Z,14.32
2023-01-13T19:05:09.271Z,6.22
2023-01-13T19:07:36.714Z,7.50
2023-01-13T19:10:04.813Z,9.02
2023-01-13T19:12:33.578Z,8.18
2023-01-13T19:15:01.458Z,5.30
2023-01-13T19:17:31.740Z,5.93
2023-01-13T19:19:59.003Z,3.33
2023-01-13T19:22:30.133Z,5.95
2023-01-13T19:24:58.186Z,2.72
2023-01-13T19:27:27.393Z,7.57
2023-01-13T19:29:57.386Z,11.05
2023-01-13T19:32:24.561Z,9.07
2023-01-13T19:34:51.615Z,7.72
2023-01-13T19:37:19.446Z,10.00
2023-01-13T19:39:46.135Z,10.30
2023-01-13T19:42:32.097Z,4.68
2023-01-13T19:45:17.613Z,9.20
2023-01-13T19:47:45.610Z,6.18
2023-01-13T19:50:13.634Z,5.80
2023-01-13T19:52:41.650Z,5.65
2023-01-13T19:55:09.466Z,5.75
2023-01-13T19:57:36.935Z,6.20
2023-01-13T20:00:05.344Z,8.35
2023-01-13T20:02:32.019Z,9.77
2023-01-13T20:05:02.067Z,12.32
2023-01-13T20:07:30.745Z,5.20
2023-01-13T20:09:57.719Z,9.05
2023-01-13T20:12:28.492Z,9.70
2023-01-13T20:14:55.262Z,4.05
2023-01-13T20:17:25.478Z,6.60
2023-01-13T20:19:52.303Z,2.08
2023-01-13T20:22:19.019Z,4.63
2023-01-13T20:24:45.763Z,5.38
2023-01-13T20:27:12.502Z,7.32
2023-01-13T20:29:39.590Z,5.45
2023-01-13T20:32:06.265Z,6.47
2023-01-13T20:34:33.104Z,6.30
2023-01-13T20:37:00.260Z,8.85
2023-01-13T20:39:26.983Z,12.00
2023-01-13T20:42:13.188Z,9.43
2023-01-13T20:44:41.425Z,8.52
2023-01-13T20:47:08.141Z,11.50
2023-01-13T20:49:36.755Z,7.63
2023-01-13T20:52:08.974Z,11.30
2023-01-13T20:54:40.308Z,10.30
2023-01-13T20:57:09.768Z,6.18
2023-01-13T20:59:37.394Z,12.18
2023-01-13T21:02:05.789Z,9.05
2023-01-13T21:04:32.364Z,9.52
2023-01-13T21:06:59.010Z,10.90
2023-01-13T21:09:27.189Z,8.77
2023-01-13T21:12:13.083Z,9.43
2023-01-13T21:14:58.437Z,7.97
2023-01-13T21:17:43.883Z,9.32
2023-01-13T21:20:12.603Z,6.40
2023-01-13T21:22:40.651Z,10.60
2023-01-13T21:25:07.648Z,10.07
2023-01-13T21:27:34.656Z,12.60
2023-01-13T21:30:01.358Z,12.90
2023-01-13T21:32:28.014Z,10.23
2023-01-13T21:34:54.712Z,11.02
2023-01-13T21:37:22.069Z,9.05
2023-01-13T21:39:48.927Z,11.05
2023-01-13T21:42:34.570Z,6.25
2023-01-13T21:45:20.453Z,10.02
2023-01-13T21:47:50.236Z,12.95
2023-01-13T21:50:22.447Z,10.65
2023-01-13T21:52:50.414Z,11.48
2023-01-13T21:55:17.196Z,13.63
2023-01-13T21:57:47.770Z,11.63
2023-01-13T22:00:15.680Z,10.70
2023-01-13T22:02:43.074Z,12.70
2023-01-13T22:05:11.443Z,17.52
2023-01-13T22:07:39.331Z,13.25
2023-01-13T22:10:08.412Z,9.10
2023-01-13T22:12:35.808Z,12.23
2023-01-13T22:15:02.756Z,11.88
2023-01-13T22:17:31.461Z,19.52
2023-01-13T22:19:59.101Z,9.65
2023-01-13T22:22:26.347Z,9.48
2023-01-13T22:24:53.816Z,10.20
2023-01-13T23:02:46.796Z,7.00
2023-01-13T23:05:13.912Z,8.48
2023-01-13T23:07:40.828Z,13.40
2023-01-13T23:10:07.727Z,9.23
2023-01-13T23:12:34.344Z,11.43
2023-01-13T23:15:01.001Z,15.10
2023-01-13T23:17:27.635Z,13.35
2023-01-13T23:19:54.239Z,20.63
2023-01-13T23:22:20.833Z,10.98
2023-01-13T23:24:47.507Z,10.18
2023-01-13T23:27:14.082Z,15.05
2023-01-13T23:29:40.788Z,11.45
2023-01-13T23:32:07.449Z,11.07
2023-01-13T23:34:34.111Z,8.88
2023-01-13T23:37:00.851Z,10.90
2023-01-13T23:39:27.427Z,9.68
2023-01-13T23:41:54.787Z,17.75
2023-01-13T23:44:21.401Z,7.45
2023-01-13T23:46:48.013Z,18.58
2023-01-13T23:49:14.695Z,16.48
2023-01-13T23:51:41.330Z,6.80
2023-01-13T23:54:08.167Z,9.07
2023-01-13T23:56:38.997Z,7.90
2023-01-13T23:59:05.655Z,14.48
